Terminal Aerodrome Forecast
Issued by NWS Missoula, MT

Home | Current Version | Previous Version | Text Only | Print | Product List | Glossary On
Versions: 1 2 3 4 5 6 7 8 9 10 11 12 13 14
000
FTUS45 KMSO 232338
TAFGPI
TAF
KGPI 232338Z 2400/2424 00000KT P6SM OVC050
     FM240500 15004KT P6SM VCSH OVC035
     FM240800 15006KT 4SM -SN BR BKN025 OVC040
     FM241300 16008KT 6SM -RASN BR SCT020 OVC030
     FM242100 16005KT P6SM -RA OVC035=

USA.gov is the U.S. government's official web portal to all federal, state and local government web resources and services.